createdAt,value
2019-03-26T00:02:04.441Z,72.03
2019-03-26T00:04:37.593Z,71.60
2019-03-26T00:07:08.602Z,72.24
2019-03-26T00:09:39.648Z,72.62
2019-03-26T00:12:10.580Z,72.45
2019-03-26T00:14:41.528Z,72.42
2019-03-26T00:17:12.403Z,72.66
2019-03-26T00:19:43.407Z,72.57
2019-03-26T00:22:14.512Z,73.26
2019-03-26T00:24:45.502Z,73.46
2019-03-26T00:27:16.416Z,73.40
2019-03-26T00:29:47.305Z,73.69
2019-03-26T00:32:18.178Z,73.48
2019-03-26T00:34:49.040Z,73.54
2019-03-26T00:37:20.121Z,73.61
2019-03-26T00:39:50.984Z,73.82
2019-03-26T00:42:21.928Z,73.94
2019-03-26T00:44:52.798Z,73.73
2019-03-26T00:47:23.828Z,73.66
2019-03-26T00:49:54.706Z,73.66
2019-03-26T00:52:25.705Z,74.01
2019-03-26T00:54:56.724Z,74.03
2019-03-26T00:57:27.710Z,74.03
2019-03-26T00:59:58.580Z,74.32
2019-03-26T01:02:29.580Z,74.49
2019-03-26T01:05:00.598Z,74.36
2019-03-26T01:07:31.723Z,74.36
2019-03-26T01:10:02.974Z,74.00
2019-03-26T01:12:34.017Z,74.00
2019-03-26T01:15:07.306Z,74.12
2019-03-26T01:17:38.328Z,74.12
2019-03-26T01:20:09.387Z,74.17
2019-03-26T01:22:40.523Z,73.61
2019-03-26T01:25:11.496Z,73.99
2019-03-26T01:27:43.451Z,74.05
2019-03-26T01:30:14.468Z,74.06
2019-03-26T01:32:46.466Z,74.16
2019-03-26T01:35:17.411Z,74.31
2019-03-26T01:37:48.407Z,73.89
2019-03-26T01:40:19.388Z,73.89
2019-03-26T01:42:51.455Z,73.80
2019-03-26T01:45:22.340Z,73.88
2019-03-26T01:47:53.332Z,73.87
2019-03-26T01:50:24.236Z,73.92
2019-03-26T01:52:55.318Z,73.79
2019-03-26T01:55:26.175Z,74.06
2019-03-26T01:57:57.182Z,74.33
2019-03-26T02:00:28.047Z,74.07
2019-03-26T02:02:59.066Z,74.78
2019-03-26T02:05:30.163Z,74.61
2019-03-26T02:08:01.225Z,74.79
2019-03-26T02:10:32.096Z,74.79
2019-03-26T02:13:03.625Z,74.80
2019-03-26T02:15:34.564Z,74.07
2019-03-26T02:18:05.518Z,74.50
2019-03-26T02:20:36.582Z,74.71
2019-03-26T02:23:07.646Z,74.85
2019-03-26T02:25:38.706Z,74.85
2019-03-26T02:28:09.800Z,74.85
2019-03-26T02:30:40.853Z,75.03
2019-03-26T02:33:11.871Z,75.03
2019-03-26T02:35:42.818Z,75.28
2019-03-26T02:38:13.675Z,75.63
2019-03-26T02:40:45.732Z,74.87
2019-03-26T02:43:16.762Z,74.89
2019-03-26T02:45:47.657Z,74.68
2019-03-26T02:48:18.641Z,74.88
2019-03-26T02:50:49.720Z,74.88
2019-03-26T02:53:20.624Z,74.92
2019-03-26T02:55:51.839Z,74.92
2019-03-26T02:58:22.655Z,74.80
2019-03-26T03:00:53.555Z,74.68
2019-03-26T03:03:24.494Z,74.82
2019-03-26T03:05:55.532Z,75.02
2019-03-26T03:08:26.639Z,75.16
2019-03-26T03:10:57.575Z,75.16
2019-03-26T03:13:28.552Z,74.81
2019-03-26T03:15:59.481Z,75.18
2019-03-26T03:18:30.412Z,74.91
2019-03-26T03:21:01.363Z,74.83
2019-03-26T03:23:32.314Z,75.03
2019-03-26T03:26:03.307Z,74.97
2019-03-26T03:28:34.402Z,75.22
2019-03-26T03:31:05.427Z,75.26
2019-03-26T03:33:36.385Z,74.97
2019-03-26T03:36:07.439Z,74.97
2019-03-26T03:38:41.292Z,75.09
2019-03-26T03:41:11.131Z,75.11
2019-03-26T03:43:42.099Z,75.03
2019-03-26T03:46:13.025Z,74.84
2019-03-26T03:48:43.946Z,74.84
2019-03-26T03:51:15.520Z,75.18
2019-03-26T03:53:46.474Z,75.16
2019-03-26T03:56:18.169Z,75.49
2019-03-26T03:58:49.122Z,75.57
2019-03-26T04:01:20.086Z,75.20
2019-03-26T04:03:51.014Z,75.24
2019-03-26T04:06:21.971Z,75.39
2019-03-26T04:08:52.826Z,75.39
2019-03-26T04:11:23.838Z,75.53
2019-03-26T04:13:54.769Z,75.69
2019-03-26T04:16:25.830Z,75.77
2019-03-26T04:18:57.898Z,75.56
2019-03-26T04:21:28.926Z,75.56
2019-03-26T04:23:59.854Z,75.42
2019-03-26T04:26:30.795Z,75.37
2019-03-26T04:29:01.733Z,75.47
2019-03-26T04:31:32.667Z,75.33
2019-03-26T04:34:04.612Z,75.47
2019-03-26T04:36:35.579Z,75.47
2019-03-26T04:39:07.950Z,74.98
2019-03-26T04:41:38.925Z,75.26
2019-03-26T04:44:09.948Z,75.16
2019-03-26T04:46:40.874Z,74.93
2019-03-26T04:49:11.821Z,74.90
2019-03-26T04:51:42.865Z,74.90
2019-03-26T04:54:13.906Z,75.15
2019-03-26T04:56:44.937Z,75.36
2019-03-26T04:59:15.829Z,75.68
2019-03-26T05:01:46.783Z,75.62
2019-03-26T05:04:17.843Z,75.19
2019-03-26T05:06:48.793Z,75.07
2019-03-26T05:09:19.672Z,74.53
2019-03-26T05:11:50.563Z,73.62
2019-03-26T05:14:21.649Z,72.49
2019-03-26T05:16:52.647Z,73.24
2019-03-26T05:19:23.596Z,71.79
2019-03-26T05:21:54.597Z,72.02
2019-03-26T05:24:25.580Z,72.77
2019-03-26T05:26:56.613Z,73.23
2019-03-26T05:29:27.553Z,72.82
2019-03-26T05:31:58.671Z,73.58
2019-03-26T05:34:29.738Z,73.58
2019-03-26T05:37:00.945Z,72.62
2019-03-26T05:39:32.030Z,71.68
2019-03-26T05:42:03.007Z,71.68
2019-03-26T05:44:34.189Z,71.99
2019-03-26T05:47:05.438Z,70.62
2019-03-26T05:49:36.657Z,70.16
2019-03-26T05:52:07.761Z,70.57
2019-03-26T05:54:39.049Z,70.73
2019-03-26T05:57:10.160Z,70.08
2019-03-26T05:59:41.295Z,69.37
2019-03-26T06:02:15.173Z,68.78
2019-03-26T06:04:45.144Z,69.62
2019-03-26T06:07:16.203Z,72.13
2019-03-26T06:09:47.366Z,72.13
2019-03-26T06:12:18.550Z,70.59
2019-03-26T06:14:49.799Z,69.95
2019-03-26T06:17:21.031Z,70.02
2019-03-26T06:19:52.101Z,68.59
2019-03-26T06:22:23.347Z,67.77
2019-03-26T06:24:54.440Z,67.40
2019-03-26T06:27:25.580Z,67.89
2019-03-26T06:29:56.727Z,68.34
2019-03-26T06:32:27.807Z,68.28
2019-03-26T06:34:59.017Z,67.94
2019-03-26T06:37:30.076Z,68.07
2019-03-26T06:40:01.122Z,68.41
2019-03-26T06:42:32.261Z,68.52
2019-03-26T06:45:04.585Z,67.66
2019-03-26T06:47:35.734Z,67.67
2019-03-26T06:50:10.591Z,67.06
2019-03-26T06:52:41.713Z,64.90
2019-03-26T06:55:12.789Z,64.97
2019-03-26T06:57:43.857Z,64.40
2019-03-26T07:00:14.980Z,65.34
2019-03-26T07:02:46.288Z,65.56
2019-03-26T07:05:17.388Z,65.45
2019-03-26T07:07:48.508Z,64.65
2019-03-26T07:10:22.901Z,64.55
2019-03-26T07:12:54.002Z,64.56
2019-03-26T07:15:24.977Z,64.44
2019-03-26T07:17:56.024Z,63.00
2019-03-26T07:20:27.013Z,63.89
2019-03-26T07:22:57.986Z,65.98
2019-03-26T07:25:28.984Z,65.81
2019-03-26T07:28:00.048Z,66.68
2019-03-26T07:30:39.679Z,66.04
2019-03-26T07:33:10.745Z,64.75
2019-03-26T07:35:41.862Z,64.41
2019-03-26T07:38:12.941Z,63.52
2019-03-26T07:40:43.976Z,63.11
2019-03-26T07:43:15.139Z,63.26
2019-03-26T07:45:46.360Z,63.21
2019-03-26T07:48:17.525Z,63.44
2019-03-26T07:50:48.620Z,62.62
2019-03-26T07:53:19.923Z,62.69
2019-03-26T07:55:51.266Z,63.39
2019-03-26T07:58:22.269Z,62.00
2019-03-26T08:00:53.397Z,61.86
2019-03-26T08:03:24.513Z,61.61
2019-03-26T08:05:55.668Z,61.17
2019-03-26T08:08:26.885Z,60.14
2019-03-26T08:10:58.080Z,61.34
2019-03-26T08:13:29.258Z,61.83
2019-03-26T08:16:00.454Z,62.31
2019-03-26T08:18:31.722Z,61.75
2019-03-26T08:21:02.860Z,61.55
2019-03-26T08:23:33.870Z,62.37
2019-03-26T08:26:04.956Z,62.62
2019-03-26T08:28:36.934Z,61.57
2019-03-26T08:31:08.167Z,61.04
2019-03-26T08:33:39.397Z,61.93
2019-03-26T08:36:10.386Z,62.23
2019-03-26T08:38:41.485Z,61.52
2019-03-26T08:41:12.526Z,60.45
2019-03-26T08:43:43.561Z,59.59
2019-03-26T08:46:14.604Z,59.05
2019-03-26T08:48:45.622Z,59.30
2019-03-26T08:51:16.687Z,59.58
2019-03-26T08:53:48.014Z,58.28
2019-03-26T08:56:19.256Z,58.79
2019-03-26T08:58:50.241Z,57.43
2019-03-26T09:01:21.301Z,57.40
2019-03-26T09:03:52.422Z,58.17
2019-03-26T09:06:23.475Z,57.78
2019-03-26T09:08:54.607Z,57.52
2019-03-26T09:11:25.710Z,57.54
2019-03-26T09:13:56.900Z,56.01
2019-03-26T09:16:28.043Z,56.17
2019-03-26T09:18:59.166Z,55.68
2019-03-26T09:21:32.582Z,54.84
2019-03-26T09:24:03.214Z,55.81
2019-03-26T09:26:34.439Z,57.19
2019-03-26T09:29:06.641Z,56.81
2019-03-26T09:31:37.669Z,55.12
2019-03-26T09:34:10.084Z,55.65
2019-03-26T09:36:41.395Z,55.34
2019-03-26T09:39:12.520Z,54.82
2019-03-26T09:41:43.565Z,54.56
2019-03-26T09:44:14.872Z,54.78
2019-03-26T09:46:46.002Z,55.16
2019-03-26T09:49:17.142Z,54.60
2019-03-26T09:51:48.367Z,54.28
2019-03-26T09:54:19.493Z,52.62
2019-03-26T09:56:50.532Z,52.04
2019-03-26T09:59:21.673Z,53.18
2019-03-26T10:01:52.934Z,53.50
2019-03-26T10:04:24.158Z,53.93
2019-03-26T10:06:55.433Z,54.76
2019-03-26T10:09:26.579Z,55.44
2019-03-26T10:11:57.993Z,55.64
2019-03-26T10:14:29.144Z,55.94
2019-03-26T10:17:00.306Z,55.01
2019-03-26T10:19:31.444Z,54.37
2019-03-26T10:22:02.666Z,53.18
2019-03-26T10:24:33.685Z,52.26
2019-03-26T10:27:04.716Z,53.09
2019-03-26T10:29:35.834Z,52.67
2019-03-26T10:32:07.033Z,52.98
2019-03-26T10:34:38.205Z,52.91
2019-03-26T10:37:09.284Z,53.14
2019-03-26T10:39:40.387Z,53.00
2019-03-26T10:42:11.513Z,52.63
2019-03-26T10:44:42.533Z,51.63
2019-03-26T10:47:13.666Z,52.99
2019-03-26T10:49:44.774Z,53.09
2019-03-26T10:52:15.920Z,52.93
2019-03-26T10:54:47.127Z,52.24
2019-03-26T10:57:18.195Z,51.08
2019-03-26T10:59:49.326Z,51.52
2019-03-26T11:02:20.394Z,50.89
2019-03-26T11:04:51.420Z,50.43
2019-03-26T11:07:22.665Z,50.41
2019-03-26T11:09:53.782Z,51.26
2019-03-26T11:12:24.899Z,51.03
2019-03-26T11:40:41.386Z,47.92
2019-03-26T11:43:12.625Z,47.99
2019-03-26T11:45:43.771Z,47.97
2019-03-26T11:48:15.079Z,47.87
2019-03-26T11:50:46.159Z,48.05
2019-03-26T11:53:17.255Z,47.36
2019-03-26T11:55:48.345Z,46.89
2019-03-26T11:58:29.960Z,47.07
2019-03-26T12:00:52.643Z,46.68
2019-03-26T12:03:23.737Z,47.59
2019-03-26T12:05:54.890Z,47.53
2019-03-26T12:08:26.111Z,46.85
2019-03-26T12:10:57.361Z,46.05
2019-03-26T12:13:28.365Z,45.12
2019-03-26T12:15:59.344Z,45.39
2019-03-26T12:18:30.454Z,45.13
2019-03-26T12:21:01.476Z,44.67
2019-03-26T12:23:32.624Z,44.79
2019-03-26T12:26:03.680Z,45.06
2019-03-26T12:28:34.730Z,47.14
2019-03-26T12:31:05.733Z,47.95
2019-03-26T12:33:36.776Z,48.16
2019-03-26T12:36:07.979Z,48.03
2019-03-26T12:38:38.929Z,44.97
2019-03-26T12:41:10.016Z,45.65
2019-03-26T12:43:41.071Z,45.60
2019-03-26T12:46:12.277Z,45.91
2019-03-26T12:48:43.365Z,44.20
2019-03-26T12:51:14.458Z,44.05
2019-03-26T12:53:45.638Z,42.88
2019-03-26T12:56:16.687Z,41.64
2019-03-26T12:58:47.820Z,41.23
2019-03-26T13:01:18.965Z,41.28
2019-03-26T13:03:49.956Z,41.14
2019-03-26T13:06:21.047Z,40.78
2019-03-26T13:08:52.097Z,41.25
2019-03-26T13:11:24.754Z,41.21
2019-03-26T13:13:55.822Z,41.13
2019-03-26T13:16:27.018Z,41.13
2019-03-26T13:18:58.324Z,40.82
2019-03-26T13:21:29.374Z,41.04
2019-03-26T13:24:00.501Z,40.97
2019-03-26T13:26:31.919Z,40.85
2019-03-26T13:29:02.910Z,40.99
2019-03-26T13:31:34.086Z,40.90
2019-03-26T13:34:05.371Z,40.93
2019-03-26T13:36:36.566Z,40.87
2019-03-26T13:39:09.007Z,41.87
2019-03-26T13:41:40.106Z,44.97
2019-03-26T13:44:11.178Z,45.64
2019-03-26T13:46:42.267Z,45.08
2019-03-26T13:49:13.289Z,44.90
2019-03-26T13:51:44.464Z,45.00
2019-03-26T13:54:15.548Z,44.47
2019-03-26T13:56:46.732Z,44.21
2019-03-26T13:59:17.839Z,44.10
2019-03-26T14:01:48.934Z,43.81
2019-03-26T14:04:20.035Z,43.86
2019-03-26T14:06:52.718Z,44.10
2019-03-26T14:09:23.823Z,44.09
2019-03-26T14:11:57.616Z,43.90
2019-03-26T14:14:27.818Z,44.13
2019-03-26T14:16:58.951Z,44.04
2019-03-26T14:19:30.072Z,44.04
2019-03-26T14:22:01.401Z,43.63
2019-03-26T14:24:32.566Z,43.61
2019-03-26T14:27:03.745Z,43.91
2019-03-26T14:29:35.084Z,44.27
2019-03-26T14:32:06.227Z,44.48
2019-03-26T14:34:37.232Z,44.83
2019-03-26T14:37:08.324Z,44.80
2019-03-26T14:39:39.490Z,43.91
2019-03-26T14:42:10.612Z,44.16
2019-03-26T14:44:41.856Z,44.36
2019-03-26T14:47:12.998Z,43.94
2019-03-26T14:49:44.116Z,44.10
2019-03-26T14:52:15.186Z,44.11
2019-03-26T14:54:46.278Z,44.10
2019-03-26T14:57:17.359Z,44.08
2019-03-26T14:59:48.699Z,44.61
2019-03-26T15:02:19.763Z,44.68
2019-03-26T15:04:51.080Z,45.01
2019-03-26T15:07:22.702Z,45.29
2019-03-26T15:09:53.816Z,45.26
2019-03-26T15:12:24.960Z,45.30
2019-03-26T15:14:57.224Z,45.16
2019-03-26T15:17:28.330Z,44.98
2019-03-26T15:19:59.550Z,45.01
2019-03-26T15:22:30.873Z,45.30
2019-03-26T15:25:02.188Z,45.42
2019-03-26T15:27:33.204Z,45.51
2019-03-26T15:30:08.868Z,45.83
2019-03-26T15:32:41.156Z,46.17
2019-03-26T15:35:12.338Z,45.99
2019-03-26T15:37:43.412Z,45.49
2019-03-26T15:40:14.565Z,45.14
2019-03-26T15:42:45.700Z,44.91
2019-03-26T15:45:16.742Z,44.46
2019-03-26T15:47:47.906Z,44.53
2019-03-26T15:50:28.200Z,44.60
2019-03-26T15:52:59.195Z,44.50
2019-03-26T15:55:30.312Z,45.31
2019-03-26T15:58:01.488Z,46.47
2019-03-26T16:00:32.969Z,48.40
2019-03-26T16:03:04.149Z,49.48
2019-03-26T16:05:35.324Z,50.39
2019-03-26T16:08:06.367Z,51.12
2019-03-26T16:10:37.411Z,51.90
2019-03-26T16:13:08.450Z,52.47
2019-03-26T16:15:44.536Z,53.07
2019-03-26T16:18:13.498Z,53.38
2019-03-26T16:20:44.604Z,53.86
2019-03-26T16:23:15.675Z,54.12
2019-03-26T16:25:46.717Z,54.86
2019-03-26T16:28:17.777Z,55.13
2019-03-26T16:30:48.778Z,55.72
2019-03-26T16:33:19.912Z,55.64
2019-03-26T16:35:50.983Z,56.20
2019-03-26T16:38:22.012Z,56.48
2019-03-26T16:40:53.082Z,56.75
2019-03-26T16:43:24.266Z,57.15
2019-03-26T16:45:55.304Z,57.00
2019-03-26T16:48:26.333Z,57.28
2019-03-26T16:50:57.511Z,57.91
2019-03-26T16:53:28.649Z,58.75
2019-03-26T16:55:59.750Z,59.27
2019-03-26T16:58:30.907Z,59.75
2019-03-26T17:01:02.093Z,60.30
2019-03-26T17:03:33.275Z,60.79
2019-03-26T17:06:04.392Z,61.17
2019-03-26T17:08:35.629Z,61.54
2019-03-26T17:11:06.710Z,61.59
2019-03-26T17:13:37.918Z,61.72
2019-03-26T17:16:09.000Z,62.02
2019-03-26T17:18:40.210Z,61.96
2019-03-26T17:21:11.324Z,62.59
2019-03-26T17:23:42.736Z,62.38
2019-03-26T17:26:15.411Z,62.01
2019-03-26T17:28:46.767Z,61.61
2019-03-26T17:31:17.922Z,61.92
2019-03-26T17:33:49.974Z,62.23
2019-03-26T17:36:21.108Z,61.97
2019-03-26T17:38:52.201Z,61.54
2019-03-26T17:41:23.296Z,61.59
2019-03-26T17:43:54.356Z,61.14
2019-03-26T17:46:25.626Z,61.47
2019-03-26T17:48:56.759Z,61.31
2019-03-26T17:51:27.921Z,61.35
2019-03-26T17:53:59.945Z,61.24
2019-03-26T17:56:31.047Z,61.55
2019-03-26T17:59:02.094Z,61.76
2019-03-26T18:01:33.267Z,62.01
2019-03-26T18:04:04.476Z,61.42
2019-03-26T18:06:35.624Z,61.19
2019-03-26T18:09:06.927Z,61.58
2019-03-26T18:11:38.146Z,61.63
2019-03-26T18:14:09.240Z,61.95
2019-03-26T18:16:40.386Z,62.22
2019-03-26T18:19:11.500Z,62.20
2019-03-26T18:21:51.367Z,62.73
2019-03-26T18:24:15.294Z,63.26
2019-03-26T18:26:46.354Z,62.80
2019-03-26T18:29:17.484Z,63.08
2019-03-26T18:31:48.571Z,63.29
2019-03-26T18:34:19.752Z,63.67
2019-03-26T18:36:50.835Z,63.75
2019-03-26T18:39:22.060Z,63.31
2019-03-26T18:41:53.337Z,63.41
2019-03-26T18:44:24.831Z,63.69
2019-03-26T18:46:56.146Z,63.31
2019-03-26T18:49:27.310Z,62.89
2019-03-26T18:51:59.635Z,63.02
2019-03-26T18:54:30.716Z,62.67
2019-03-26T18:57:01.839Z,62.81
2019-03-26T18:59:33.026Z,62.68
2019-03-26T19:02:04.241Z,62.86
2019-03-26T19:04:36.599Z,61.53
2019-03-26T19:07:07.665Z,62.27
2019-03-26T19:09:38.805Z,62.40
2019-03-26T19:12:09.776Z,62.02
2019-03-26T19:14:41.452Z,62.34
2019-03-26T19:17:12.587Z,62.17
2019-03-26T19:19:43.883Z,62.37
2019-03-26T19:22:14.997Z,61.63
2019-03-26T19:24:46.295Z,62.03
2019-03-26T19:27:17.329Z,62.31
2019-03-26T19:29:48.471Z,62.05
2019-03-26T19:32:19.798Z,62.39
2019-03-26T19:34:51.171Z,62.36
2019-03-26T19:37:22.469Z,62.04
2019-03-26T19:39:53.840Z,62.61
2019-03-26T19:42:25.040Z,62.30
2019-03-26T19:44:56.218Z,61.53
2019-03-26T19:47:27.535Z,61.73
2019-03-26T19:49:58.780Z,62.12
2019-03-26T19:52:30.096Z,63.30
2019-03-26T19:55:01.522Z,61.97
2019-03-26T19:57:32.728Z,61.96
2019-03-26T20:00:05.639Z,62.00
2019-03-26T20:02:36.911Z,62.40
2019-03-26T20:05:08.598Z,61.62
2019-03-26T20:07:39.896Z,61.62
2019-03-26T20:10:11.383Z,62.26
2019-03-26T20:12:42.568Z,62.69
2019-03-26T20:15:13.858Z,62.14
2019-03-26T20:17:44.906Z,61.94
2019-03-26T20:20:17.648Z,61.90
2019-03-26T20:22:48.849Z,61.96
2019-03-26T20:25:20.015Z,62.23
2019-03-26T20:27:51.198Z,62.50
2019-03-26T20:30:22.275Z,62.73
2019-03-26T20:32:53.318Z,62.71
2019-03-26T20:35:24.418Z,62.67
2019-03-26T20:37:56.090Z,62.45
2019-03-26T20:40:27.112Z,62.74
2019-03-26T20:42:58.351Z,63.05
2019-03-26T20:45:29.776Z,62.54
2019-03-26T20:48:01.086Z,62.60
2019-03-26T20:50:32.270Z,62.33
2019-03-26T20:53:03.455Z,62.33
2019-03-26T20:55:35.149Z,62.61
2019-03-26T20:58:06.240Z,63.07
2019-03-26T21:00:39.882Z,63.46
2019-03-26T21:03:11.096Z,63.72
2019-03-26T21:05:42.230Z,63.72
2019-03-26T21:08:13.396Z,63.53
2019-03-26T21:10:44.579Z,63.53
2019-03-26T21:13:15.665Z,63.24
2019-03-26T21:15:56.690Z,63.24
2019-03-26T21:18:19.591Z,63.33
2019-03-26T21:20:51.163Z,62.85
2019-03-26T21:23:23.364Z,62.75
2019-03-26T21:25:54.558Z,63.53
2019-03-26T21:28:25.631Z,63.77
2019-03-26T21:30:56.593Z,63.83
2019-03-26T21:33:27.603Z,64.01
2019-03-26T21:35:58.673Z,64.27
2019-03-26T21:38:29.807Z,64.59
2019-03-26T21:41:00.926Z,64.96
2019-03-26T21:43:32.643Z,65.19
2019-03-26T21:46:03.620Z,65.31
2019-03-26T21:48:34.767Z,65.28
2019-03-26T21:51:07.905Z,65.40
2019-03-26T21:53:39.053Z,66.19
2019-03-26T21:56:10.134Z,66.14
2019-03-26T21:58:41.232Z,66.31
2019-03-26T22:01:12.367Z,66.33
2019-03-26T22:03:43.460Z,66.44
2019-03-26T22:06:14.604Z,66.20
2019-03-26T22:08:45.676Z,66.20
2019-03-26T22:11:16.796Z,66.45
2019-03-26T22:13:47.780Z,66.35
2019-03-26T22:16:18.890Z,66.93
2019-03-26T22:18:49.930Z,66.93
2019-03-26T22:21:20.948Z,66.74
2019-03-26T22:23:52.128Z,66.74
2019-03-26T22:26:23.235Z,66.55
2019-03-26T22:28:54.241Z,66.37
2019-03-26T22:31:25.325Z,66.64
2019-03-26T22:33:56.292Z,66.12
2019-03-26T22:36:27.310Z,66.12
2019-03-26T22:38:58.350Z,66.04
2019-03-26T22:41:29.318Z,65.87
2019-03-26T22:44:00.331Z,65.29
2019-03-26T22:46:31.313Z,65.68
2019-03-26T22:49:02.303Z,65.45
2019-03-26T22:51:33.350Z,65.45
2019-03-26T22:54:04.392Z,66.03
2019-03-26T22:56:35.440Z,65.81
2019-03-26T22:59:06.476Z,65.80
2019-03-26T23:01:37.687Z,66.00
2019-03-26T23:04:08.755Z,66.10
2019-03-26T23:06:39.807Z,66.26
2019-03-26T23:09:10.851Z,65.95
2019-03-26T23:11:41.993Z,66.42
2019-03-26T23:14:13.037Z,66.03
2019-03-26T23:16:44.253Z,66.44
2019-03-26T23:19:15.303Z,66.35
2019-03-26T23:21:46.839Z,65.96
2019-03-26T23:24:17.921Z,66.08
2019-03-26T23:26:48.884Z,66.36
2019-03-26T23:29:19.995Z,66.55
2019-03-26T23:31:51.142Z,66.67
2019-03-26T23:34:22.295Z,66.68
2019-03-26T23:36:54.041Z,67.32
2019-03-26T23:39:25.090Z,67.42
2019-03-26T23:41:56.130Z,67.69
2019-03-26T23:44:28.121Z,67.86
2019-03-26T23:46:59.230Z,68.02
2019-03-26T23:49:30.274Z,68.29
2019-03-26T23:52:01.323Z,68.63
2019-03-26T23:54:32.481Z,68.78
2019-03-26T23:57:03.501Z,68.87
2019-03-26T23:59:34.611Z,69.01
